sensor_id;sensor_type;location;lat;lon;timestamp;pressure;altitude;pressure_sealevel;temperature;humidity
46087;BME280;31824;49.648;8.640;2022-07-29T00:01:14;100035.28;;;25.76;43.84
46087;BME280;31824;49.648;8.640;2022-07-29T00:04:20;100036.31;;;25.50;42.89
46087;BME280;31824;49.648;8.640;2022-07-29T00:07:22;100037.81;;;25.40;43.43
46087;BME280;31824;49.648;8.640;2022-07-29T00:10:23;100028.53;;;25.30;47.10
46087;BME280;31824;49.648;8.640;2022-07-29T00:13:25;100032.28;;;25.34;46.13
46087;BME280;31824;49.648;8.640;2022-07-29T00:16:33;100041.03;;;24.99;50.64
46087;BME280;31824;49.648;8.640;2022-07-29T00:19:34;100036.53;;;24.71;50.20
46087;BME280;31824;49.648;8.640;2022-07-29T00:22:39;100042.75;;;24.42;48.74
46087;BME280;31824;49.648;8.640;2022-07-29T00:25:40;100036.84;;;24.54;49.70
46087;BME280;31824;49.648;8.640;2022-07-29T00:28:42;100041.06;;;24.46;49.00
46087;BME280;31824;49.648;8.640;2022-07-29T00:31:43;100046.06;;;24.09;49.31
46087;BME280;31824;49.648;8.640;2022-07-29T00:34:45;100054.88;;;24.31;49.52
46087;BME280;31824;49.648;8.640;2022-07-29T00:38:05;100045.69;;;24.24;51.89
46087;BME280;31824;49.648;8.640;2022-07-29T00:41:07;100043.50;;;24.13;53.11
46087;BME280;31824;49.648;8.640;2022-07-29T00:44:08;100045.69;;;23.99;54.47
46087;BME280;31824;49.648;8.640;2022-07-29T00:47:11;100042.44;;;23.83;57.01
46087;BME280;31824;49.648;8.640;2022-07-29T00:50:13;100039.28;;;23.71;58.13
46087;BME280;31824;49.648;8.640;2022-07-29T00:53:15;100044.75;;;23.50;59.81
46087;BME280;31824;49.648;8.640;2022-07-29T00:56:16;100038.69;;;23.55;59.73
46087;BME280;31824;49.648;8.640;2022-07-29T00:59:18;100038.84;;;23.58;60.21
46087;BME280;31824;49.648;8.640;2022-07-29T01:02:19;100028.81;;;23.53;59.32
46087;BME280;31824;49.648;8.640;2022-07-29T01:05:24;100021.81;;;23.58;61.70
46087;BME280;31824;49.648;8.640;2022-07-29T01:08:47;100023.63;;;23.35;63.29
46087;BME280;31824;49.648;8.640;2022-07-29T01:11:49;100003.31;;;22.95;64.01
46087;BME280;31824;49.648;8.640;2022-07-29T01:14:52;100004.25;;;23.18;65.62
46087;BME280;31824;49.648;8.640;2022-07-29T01:18:07;100001.78;;;22.79;68.28
46087;BME280;31824;49.648;8.640;2022-07-29T01:24:41;99997.00;;;23.15;74.29
46087;BME280;31824;49.648;8.640;2022-07-29T01:27:57;100000.19;;;23.06;68.49
46087;BME280;31824;49.648;8.640;2022-07-29T01:31:03;100001.28;;;23.12;75.43
46087;BME280;31824;49.648;8.640;2022-07-29T01:34:08;100002.78;;;22.81;72.40
46087;BME280;31824;49.648;8.640;2022-07-29T01:37:22;99999.66;;;22.92;76.78
46087;BME280;31824;49.648;8.640;2022-07-29T01:40:35;99993.81;;;22.80;67.01
46087;BME280;31824;49.648;8.640;2022-07-29T01:43:44;99995.44;;;22.99;65.73
46087;BME280;31824;49.648;8.640;2022-07-29T01:46:54;99991.03;;;22.77;67.53
46087;BME280;31824;49.648;8.640;2022-07-29T01:49:58;99997.47;;;22.82;67.45
46087;BME280;31824;49.648;8.640;2022-07-29T01:53:03;99983.72;;;22.73;64.32
46087;BME280;31824;49.648;8.640;2022-07-29T01:56:08;99987.72;;;23.07;63.41
46087;BME280;31824;49.648;8.640;2022-07-29T01:59:11;99979.22;;;23.41;61.62
46087;BME280;31824;49.648;8.640;2022-07-29T02:02:15;99985.91;;;23.29;60.44
46087;BME280;31824;49.648;8.640;2022-07-29T02:05:18;99983.59;;;23.15;60.03
46087;BME280;31824;49.648;8.640;2022-07-29T02:08:21;99987.25;;;23.17;62.07
46087;BME280;31824;49.648;8.640;2022-07-29T02:11:24;99970.22;;;23.15;61.49
46087;BME280;31824;49.648;8.640;2022-07-29T02:14:26;99972.66;;;22.86;62.83
46087;BME280;31824;49.648;8.640;2022-07-29T02:17:37;99974.72;;;23.16;61.82
46087;BME280;31824;49.648;8.640;2022-07-29T02:20:44;99962.38;;;23.21;61.28
46087;BME280;31824;49.648;8.640;2022-07-29T02:23:47;99960.44;;;23.41;60.07
46087;BME280;31824;49.648;8.640;2022-07-29T02:26:55;99969.63;;;23.48;60.23
46087;BME280;31824;49.648;8.640;2022-07-29T02:29:58;99961.88;;;23.56;62.36
46087;BME280;31824;49.648;8.640;2022-07-29T02:33:02;99967.72;;;23.70;59.93
46087;BME280;31824;49.648;8.640;2022-07-29T02:36:05;99974.53;;;24.10;57.51
46087;BME280;31824;49.648;8.640;2022-07-29T02:39:07;99970.69;;;24.29;55.62
46087;BME280;31824;49.648;8.640;2022-07-29T02:42:13;99972.00;;;24.42;53.38
46087;BME280;31824;49.648;8.640;2022-07-29T02:45:16;99975.22;;;24.57;52.60
46087;BME280;31824;49.648;8.640;2022-07-29T02:48:21;99976.56;;;24.72;53.71
46087;BME280;31824;49.648;8.640;2022-07-29T02:51:58;99982.75;;;24.42;51.91
46087;BME280;31824;49.648;8.640;2022-07-29T02:55:07;99988.41;;;24.51;54.43
46087;BME280;31824;49.648;8.640;2022-07-29T02:58:27;99984.25;;;24.34;55.35
46087;BME280;31824;49.648;8.640;2022-07-29T03:01:31;99981.22;;;24.23;52.74
46087;BME280;31824;49.648;8.640;2022-07-29T03:04:35;99978.69;;;23.76;54.15
46087;BME280;31824;49.648;8.640;2022-07-29T03:07:40;99985.09;;;24.05;53.18
46087;BME280;31824;49.648;8.640;2022-07-29T03:10:44;99986.78;;;24.02;52.50
46087;BME280;31824;49.648;8.640;2022-07-29T03:13:48;99983.00;;;23.97;53.72
46087;BME280;31824;49.648;8.640;2022-07-29T03:16:50;99985.31;;;23.62;53.48
46087;BME280;31824;49.648;8.640;2022-07-29T03:19:52;99981.88;;;23.90;53.08
46087;BME280;31824;49.648;8.640;2022-07-29T03:22:54;99980.56;;;23.79;55.06
46087;BME280;31824;49.648;8.640;2022-07-29T03:25:56;99981.19;;;23.71;54.81
46087;BME280;31824;49.648;8.640;2022-07-29T03:28:58;99972.41;;;23.25;57.30
46087;BME280;31824;49.648;8.640;2022-07-29T03:32:02;99977.88;;;23.53;55.58
46087;BME280;31824;49.648;8.640;2022-07-29T03:35:07;99975.50;;;23.62;53.33
46087;BME280;31824;49.648;8.640;2022-07-29T03:38:09;99974.78;;;23.92;50.93
46087;BME280;31824;49.648;8.640;2022-07-29T03:41:13;99971.41;;;23.72;50.62
46087;BME280;31824;49.648;8.640;2022-07-29T03:44:16;99986.25;;;23.88;50.97
46087;BME280;31824;49.648;8.640;2022-07-29T03:47:22;99973.78;;;24.14;49.36
46087;BME280;31824;49.648;8.640;2022-07-29T03:50:44;99977.56;;;23.93;50.62
46087;BME280;31824;49.648;8.640;2022-07-29T03:53:47;99978.34;;;23.91;49.94
46087;BME280;31824;49.648;8.640;2022-07-29T03:56:50;99971.94;;;23.87;49.43
46087;BME280;31824;49.648;8.640;2022-07-29T03:59:54;99972.47;;;24.03;49.20
46087;BME280;31824;49.648;8.640;2022-07-29T04:02:56;99966.28;;;23.80;49.83
46087;BME280;31824;49.648;8.640;2022-07-29T04:06:03;99975.66;;;23.91;50.60
46087;BME280;31824;49.648;8.640;2022-07-29T04:09:07;99981.47;;;24.03;48.71
46087;BME280;31824;49.648;8.640;2022-07-29T04:12:10;99974.59;;;24.12;48.29
46087;BME280;31824;49.648;8.640;2022-07-29T04:15:11;99975.09;;;23.51;49.69
46087;BME280;31824;49.648;8.640;2022-07-29T04:18:13;99979.31;;;23.93;49.29
46087;BME280;31824;49.648;8.640;2022-07-29T04:21:15;99985.91;;;24.03;50.51
46087;BME280;31824;49.648;8.640;2022-07-29T04:24:16;99983.91;;;23.97;49.63
46087;BME280;31824;49.648;8.640;2022-07-29T04:27:19;99985.25;;;23.84;50.33
46087;BME280;31824;49.648;8.640;2022-07-29T04:30:21;99981.22;;;23.97;50.50
46087;BME280;31824;49.648;8.640;2022-07-29T04:33:22;99998.31;;;23.99;50.05
46087;BME280;31824;49.648;8.640;2022-07-29T04:36:25;99989.66;;;24.08;50.65
46087;BME280;31824;49.648;8.640;2022-07-29T04:39:30;99997.66;;;23.82;52.14
46087;BME280;31824;49.648;8.640;2022-07-29T04:42:31;99999.50;;;23.83;53.30
46087;BME280;31824;49.648;8.640;2022-07-29T04:45:33;99994.28;;;24.12;52.49
46087;BME280;31824;49.648;8.640;2022-07-29T04:48:34;99993.00;;;24.01;52.69
46087;BME280;31824;49.648;8.640;2022-07-29T04:51:36;99984.72;;;23.94;53.57
46087;BME280;31824;49.648;8.640;2022-07-29T04:54:37;99981.50;;;24.05;52.86
46087;BME280;31824;49.648;8.640;2022-07-29T04:57:39;99980.91;;;24.14;54.24
46087;BME280;31824;49.648;8.640;2022-07-29T05:00:41;99982.75;;;23.89;57.13
46087;BME280;31824;49.648;8.640;2022-07-29T05:03:42;99989.66;;;23.84;59.79
46087;BME280;31824;49.648;8.640;2022-07-29T05:06:44;99984.66;;;23.93;59.27
46087;BME280;31824;49.648;8.640;2022-07-29T05:09:45;99992.63;;;24.16;60.51
46087;BME280;31824;49.648;8.640;2022-07-29T05:12:47;99990.50;;;24.07;61.48
46087;BME280;31824;49.648;8.640;2022-07-29T05:15:49;99990.50;;;24.07;59.50
46087;BME280;31824;49.648;8.640;2022-07-29T05:18:50;99998.03;;;23.91;58.33
46087;BME280;31824;49.648;8.640;2022-07-29T05:21:52;100001.56;;;24.16;56.38
46087;BME280;31824;49.648;8.640;2022-07-29T05:24:53;99995.97;;;24.36;56.13
46087;BME280;31824;49.648;8.640;2022-07-29T05:27:55;100005.66;;;24.05;60.97
46087;BME280;31824;49.648;8.640;2022-07-29T05:30:57;99999.72;;;24.15;61.67
46087;BME280;31824;49.648;8.640;2022-07-29T05:33:59;100005.56;;;24.27;58.54
46087;BME280;31824;49.648;8.640;2022-07-29T05:37:00;99994.53;;;24.20;54.49
46087;BME280;31824;49.648;8.640;2022-07-29T05:40:03;100005.56;;;24.02;58.06
46087;BME280;31824;49.648;8.640;2022-07-29T05:43:04;100004.22;;;24.42;57.34
46087;BME280;31824;49.648;8.640;2022-07-29T05:46:06;100009.28;;;24.07;59.33
46087;BME280;31824;49.648;8.640;2022-07-29T05:49:08;100012.94;;;24.35;57.60
46087;BME280;31824;49.648;8.640;2022-07-29T05:52:10;100004.19;;;24.15;58.45
46087;BME280;31824;49.648;8.640;2022-07-29T05:55:11;100010.00;;;24.01;59.38
46087;BME280;31824;49.648;8.640;2022-07-29T05:58:13;100007.91;;;24.18;61.41
46087;BME280;31824;49.648;8.640;2022-07-29T06:01:14;100006.31;;;23.98;66.77
46087;BME280;31824;49.648;8.640;2022-07-29T06:04:17;100014.03;;;24.14;70.34
46087;BME280;31824;49.648;8.640;2022-07-29T06:07:19;100025.69;;;24.15;72.99
46087;BME280;31824;49.648;8.640;2022-07-29T06:10:21;100021.47;;;24.23;71.05
46087;BME280;31824;49.648;8.640;2022-07-29T06:13:26;100019.88;;;24.02;75.05
46087;BME280;31824;49.648;8.640;2022-07-29T06:16:28;100016.53;;;24.09;73.05
46087;BME280;31824;49.648;8.640;2022-07-29T06:19:30;100028.75;;;24.53;72.36
46087;BME280;31824;49.648;8.640;2022-07-29T06:22:32;100031.56;;;24.04;79.08
46087;BME280;31824;49.648;8.640;2022-07-29T06:25:33;100030.63;;;24.55;72.75
46087;BME280;31824;49.648;8.640;2022-07-29T06:28:37;100029.13;;;24.64;73.35
46087;BME280;31824;49.648;8.640;2022-07-29T06:31:39;100032.88;;;24.16;78.22
46087;BME280;31824;49.648;8.640;2022-07-29T06:34:42;100034.38;;;24.60;77.12
46087;BME280;31824;49.648;8.640;2022-07-29T06:37:49;100035.97;;;24.81;76.95
46087;BME280;31824;49.648;8.640;2022-07-29T06:40:55;100031.56;;;25.12;63.17
46087;BME280;31824;49.648;8.640;2022-07-29T06:44:11;100031.84;;;25.50;64.71
46087;BME280;31824;49.648;8.640;2022-07-29T06:47:13;100039.09;;;25.24;70.45
46087;BME280;31824;49.648;8.640;2022-07-29T06:50:15;100032.84;;;25.25;70.24
46087;BME280;31824;49.648;8.640;2022-07-29T06:53:17;100041.44;;;24.84;77.25
46087;BME280;31824;49.648;8.640;2022-07-29T06:56:18;100035.00;;;25.06;76.91
46087;BME280;31824;49.648;8.640;2022-07-29T06:59:20;100036.59;;;25.30;76.79
46087;BME280;31824;49.648;8.640;2022-07-29T07:02:32;100040.81;;;25.51;78.15
46087;BME280;31824;49.648;8.640;2022-07-29T07:05:35;100056.25;;;25.58;76.17
46087;BME280;31824;49.648;8.640;2022-07-29T07:08:36;100055.56;;;25.64;81.29
46087;BME280;31824;49.648;8.640;2022-07-29T07:11:38;100050.56;;;25.47;82.94
46087;BME280;31824;49.648;8.640;2022-07-29T07:14:39;100055.94;;;25.77;81.86
46087;BME280;31824;49.648;8.640;2022-07-29T07:17:42;100063.41;;;25.56;90.13
46087;BME280;31824;49.648;8.640;2022-07-29T07:20:44;100073.66;;;25.69;82.24
46087;BME280;31824;49.648;8.640;2022-07-29T07:23:46;100065.25;;;25.58;80.62
46087;BME280;31824;49.648;8.640;2022-07-29T07:26:48;100070.91;;;25.68;79.53
46087;BME280;31824;49.648;8.640;2022-07-29T07:29:49;100063.31;;;25.53;85.01
46087;BME280;31824;49.648;8.640;2022-07-29T07:32:51;100068.44;;;25.75;82.16
46087;BME280;31824;49.648;8.640;2022-07-29T07:35:52;100069.16;;;25.70;85.85
46087;BME280;31824;49.648;8.640;2022-07-29T07:38:54;100072.84;;;25.72;89.54
46087;BME280;31824;49.648;8.640;2022-07-29T07:41:55;100069.00;;;25.64;84.49
46087;BME280;31824;49.648;8.640;2022-07-29T07:44:57;100072.28;;;25.85;82.77
46087;BME280;31824;49.648;8.640;2022-07-29T07:48:14;100071.03;;;26.03;81.85
46087;BME280;31824;49.648;8.640;2022-07-29T07:51:15;100074.31;;;26.24;85.39
46087;BME280;31824;49.648;8.640;2022-07-29T07:54:17;100069.38;;;26.41;79.65
46087;BME280;31824;49.648;8.640;2022-07-29T07:57:21;100076.47;;;26.38;85.37
46087;BME280;31824;49.648;8.640;2022-07-29T08:00:23;100067.97;;;26.22;88.40
46087;BME280;31824;49.648;8.640;2022-07-29T08:03:24;100076.69;;;26.14;83.43
46087;BME280;31824;49.648;8.640;2022-07-29T08:06:26;100067.09;;;25.91;84.00
46087;BME280;31824;49.648;8.640;2022-07-29T08:09:28;100072.94;;;26.07;81.85
46087;BME280;31824;49.648;8.640;2022-07-29T08:12:31;100074.97;;;26.16;83.23
46087;BME280;31824;49.648;8.640;2022-07-29T08:15:32;100076.88;;;26.20;85.27
46087;BME280;31824;49.648;8.640;2022-07-29T08:18:34;100080.16;;;26.41;83.32
46087;BME280;31824;49.648;8.640;2022-07-29T08:21:36;100080.97;;;26.39;81.67
46087;BME280;31824;49.648;8.640;2022-07-29T08:24:37;100076.72;;;26.47;89.30
46087;BME280;31824;49.648;8.640;2022-07-29T08:27:46;100079.47;;;26.50;82.00
46087;BME280;31824;49.648;8.640;2022-07-29T08:30:47;100083.28;;;26.58;90.84
46087;BME280;31824;49.648;8.640;2022-07-29T08:33:49;100076.72;;;26.47;91.59
46087;BME280;31824;49.648;8.640;2022-07-29T08:36:55;100084.47;;;26.70;87.18
46087;BME280;31824;49.648;8.640;2022-07-29T08:39:57;100082.03;;;26.79;82.34
46087;BME280;31824;49.648;8.640;2022-07-29T08:43:04;100081.78;;;26.70;89.02
46087;BME280;31824;49.648;8.640;2022-07-29T08:46:06;100088.84;;;26.65;83.36
46087;BME280;31824;49.648;8.640;2022-07-29T08:49:08;100091.94;;;26.80;83.31
46087;BME280;31824;49.648;8.640;2022-07-29T08:52:11;100091.59;;;27.03;81.82
46087;BME280;31824;49.648;8.640;2022-07-29T08:55:14;100090.25;;;27.22;80.94
46087;BME280;31824;49.648;8.640;2022-07-29T08:58:22;100087.00;;;27.37;79.63
46087;BME280;31824;49.648;8.640;2022-07-29T09:01:27;100089.03;;;27.09;78.62
46087;BME280;31824;49.648;8.640;2022-07-29T09:04:37;100094.09;;;26.95;81.76
46087;BME280;31824;49.648;8.640;2022-07-29T09:07:39;100093.28;;;26.99;79.89
46087;BME280;31824;49.648;8.640;2022-07-29T09:10:41;100091.25;;;27.27;81.74
46087;BME280;31824;49.648;8.640;2022-07-29T09:13:43;100092.66;;;27.09;83.83
46087;BME280;31824;49.648;8.640;2022-07-29T09:17:03;100086.97;;;26.97;85.07
46087;BME280;31824;49.648;8.640;2022-07-29T09:20:13;100090.34;;;27.26;82.61
46087;BME280;31824;49.648;8.640;2022-07-29T09:23:15;100087.28;;;27.49;79.63
46087;BME280;31824;49.648;8.640;2022-07-29T09:26:28;100085.69;;;27.59;75.10
46087;BME280;31824;49.648;8.640;2022-07-29T09:29:30;100084.53;;;27.46;75.97
46087;BME280;31824;49.648;8.640;2022-07-29T09:32:56;100077.63;;;27.21;86.80
46087;BME280;31824;49.648;8.640;2022-07-29T09:36:06;100075.34;;;27.38;78.31
46087;BME280;31824;49.648;8.640;2022-07-29T09:39:08;100088.69;;;27.33;80.63
46087;BME280;31824;49.648;8.640;2022-07-29T09:42:10;100076.00;;;27.69;75.22
46087;BME280;31824;49.648;8.640;2022-07-29T09:45:12;100085.78;;;28.06;79.49
46087;BME280;31824;49.648;8.640;2022-07-29T09:48:26;100079.09;;;27.87;70.73
46087;BME280;31824;49.648;8.640;2022-07-29T09:51:28;100081.47;;;27.70;77.68
46087;BME280;31824;49.648;8.640;2022-07-29T09:54:38;100081.03;;;27.94;70.17
46087;BME280;31824;49.648;8.640;2022-07-29T09:57:40;100086.22;;;28.29;70.78
46087;BME280;31824;49.648;8.640;2022-07-29T10:00:44;100078.50;;;28.02;69.81
46087;BME280;31824;49.648;8.640;2022-07-29T10:03:51;100067.41;;;27.88;72.51
46087;BME280;31824;49.648;8.640;2022-07-29T10:07:00;100076.94;;;28.15;69.56
46087;BME280;31824;49.648;8.640;2022-07-29T10:10:05;100073.34;;;28.63;74.83
46087;BME280;31824;49.648;8.640;2022-07-29T10:13:10;100078.47;;;29.02;62.56
46087;BME280;31824;49.648;8.640;2022-07-29T10:16:16;100082.13;;;28.52;65.14
46087;BME280;31824;49.648;8.640;2022-07-29T10:19:19;100086.50;;;28.95;64.81
46087;BME280;31824;49.648;8.640;2022-07-29T10:22:21;100083.66;;;28.88;60.64
46087;BME280;31824;49.648;8.640;2022-07-29T10:25:45;100079.34;;;29.01;64.50
46087;BME280;31824;49.648;8.640;2022-07-29T10:28:46;100083.13;;;29.10;60.71
46087;BME280;31824;49.648;8.640;2022-07-29T10:38:47;100072.47;;;29.21;62.68
46087;BME280;31824;49.648;8.640;2022-07-29T10:42:15;100071.56;;;29.22;62.30
46087;BME280;31824;49.648;8.640;2022-07-29T10:45:20;100066.47;;;29.42;60.01
46087;BME280;31824;49.648;8.640;2022-07-29T10:48:23;100060.84;;;29.27;58.16
46087;BME280;31824;49.648;8.640;2022-07-29T10:51:25;100060.84;;;29.25;59.20
46087;BME280;31824;49.648;8.640;2022-07-29T10:54:44;100058.59;;;29.61;58.57
46087;BME280;31824;49.648;8.640;2022-07-29T10:58:10;100057.38;;;29.39;58.74
46087;BME280;31824;49.648;8.640;2022-07-29T11:01:29;100049.81;;;29.82;57.63
46087;BME280;31824;49.648;8.640;2022-07-29T11:21:00;100048.78;;;29.71;54.76
46087;BME280;31824;49.648;8.640;2022-07-29T11:24:32;100051.34;;;30.40;57.86
46087;BME280;31824;49.648;8.640;2022-07-29T11:27:35;100044.00;;;30.26;56.08
46087;BME280;31824;49.648;8.640;2022-07-29T11:30:53;100037.59;;;30.20;57.34
46087;BME280;31824;49.648;8.640;2022-07-29T11:33:56;100037.38;;;29.96;53.99
46087;BME280;31824;49.648;8.640;2022-07-29T11:40:15;100031.31;;;30.24;54.88
46087;BME280;31824;49.648;8.640;2022-07-29T11:46:55;100031.75;;;30.67;55.89
46087;BME280;31824;49.648;8.640;2022-07-29T11:49:59;100026.25;;;30.59;53.57
46087;BME280;31824;49.648;8.640;2022-07-29T11:53:11;100030.66;;;30.46;54.15
46087;BME280;31824;49.648;8.640;2022-07-29T11:56:14;100030.44;;;30.25;53.27
46087;BME280;31824;49.648;8.640;2022-07-29T11:59:19;100031.75;;;30.67;54.83
46087;BME280;31824;49.648;8.640;2022-07-29T12:02:21;100024.78;;;30.02;53.79
46087;BME280;31824;49.648;8.640;2022-07-29T12:05:43;100023.94;;;30.07;53.71
46087;BME280;31824;49.648;8.640;2022-07-29T12:08:52;100021.22;;;30.06;55.64
46087;BME280;31824;49.648;8.640;2022-07-29T12:11:57;100016.88;;;30.23;52.42
46087;BME280;31824;49.648;8.640;2022-07-29T12:15:17;100008.22;;;30.68;51.72
46087;BME280;31824;49.648;8.640;2022-07-29T12:18:22;100006.03;;;30.23;51.00
46087;BME280;31824;49.648;8.640;2022-07-29T12:21:24;100001.63;;;30.39;51.41
46087;BME280;31824;49.648;8.640;2022-07-29T12:24:43;100003.03;;;31.02;51.60
46087;BME280;31824;49.648;8.640;2022-07-29T12:27:45;100009.34;;;31.01;52.30
46087;BME280;31824;49.648;8.640;2022-07-29T12:30:49;100008.44;;;30.98;51.76
46087;BME280;31824;49.648;8.640;2022-07-29T12:33:52;100001.06;;;30.79;51.49
46087;BME280;31824;49.648;8.640;2022-07-29T12:36:54;100013.41;;;31.91;48.18
46087;BME280;31824;49.648;8.640;2022-07-29T12:39:56;100013.31;;;31.63;48.09
46087;BME280;31824;49.648;8.640;2022-07-29T12:46:14;100014.75;;;30.94;51.22
46087;BME280;31824;49.648;8.640;2022-07-29T12:49:22;100008.72;;;31.49;49.76
46087;BME280;31824;49.648;8.640;2022-07-29T12:52:32;100003.13;;;31.09;48.08
46087;BME280;31824;49.648;8.640;2022-07-29T12:55:45;99991.66;;;31.81;46.04
46087;BME280;31824;49.648;8.640;2022-07-29T12:58:50;100004.34;;;31.83;45.07
46087;BME280;31824;49.648;8.640;2022-07-29T13:01:52;99991.59;;;31.61;46.42
46087;BME280;31824;49.648;8.640;2022-07-29T13:04:58;99994.19;;;31.43;43.94
46087;BME280;31824;49.648;8.640;2022-07-29T13:08:13;99991.56;;;31.55;42.28
46087;BME280;31824;49.648;8.640;2022-07-29T13:11:34;100002.56;;;32.09;41.57
46087;BME280;31824;49.648;8.640;2022-07-29T13:14:38;99991.63;;;31.77;44.11
46087;BME280;31824;49.648;8.640;2022-07-29T13:17:42;99994.47;;;32.39;44.60
46087;BME280;31824;49.648;8.640;2022-07-29T13:20:48;99988.97;;;32.11;42.04
46087;BME280;31824;49.648;8.640;2022-07-29T13:23:50;99987.22;;;32.19;41.89
46087;BME280;31824;49.648;8.640;2022-07-29T13:26:51;99992.53;;;31.73;41.36
46087;BME280;31824;49.648;8.640;2022-07-29T13:29:55;99986.25;;;32.08;41.62
46087;BME280;31824;49.648;8.640;2022-07-29T13:32:58;99982.59;;;31.76;42.92
46087;BME280;31824;49.648;8.640;2022-07-29T13:36:01;99996.13;;;31.65;42.29
46087;BME280;31824;49.648;8.640;2022-07-29T13:39:03;99996.13;;;31.69;40.60
46087;BME280;31824;49.648;8.640;2022-07-29T13:42:06;99988.13;;;32.23;39.90
46087;BME280;31824;49.648;8.640;2022-07-29T13:45:11;99987.16;;;31.93;42.96
46087;BME280;31824;49.648;8.640;2022-07-29T13:48:13;99984.47;;;32.14;39.89
46087;BME280;31824;49.648;8.640;2022-07-29T13:51:14;99999.91;;;32.60;36.98
46087;BME280;31824;49.648;8.640;2022-07-29T13:54:16;99986.28;;;32.45;36.50
46087;BME280;31824;49.648;8.640;2022-07-29T13:57:17;99993.53;;;32.97;35.20
46087;BME280;31824;49.648;8.640;2022-07-29T14:00:19;99981.75;;;32.52;35.16
46087;BME280;31824;49.648;8.640;2022-07-29T14:03:21;99991.75;;;32.45;35.72
46087;BME280;31824;49.648;8.640;2022-07-29T14:06:22;99985.41;;;32.46;36.47
46087;BME280;31824;49.648;8.640;2022-07-29T14:09:24;99976.28;;;32.04;39.91
46087;BME280;31824;49.648;8.640;2022-07-29T14:12:25;99976.22;;;31.65;39.32
46087;BME280;31824;49.648;8.640;2022-07-29T14:15:27;99970.81;;;31.70;38.75
46087;BME280;31824;49.648;8.640;2022-07-29T14:18:28;99983.59;;;32.23;40.02
46087;BME280;31824;49.648;8.640;2022-07-29T14:21:29;99978.97;;;31.74;40.22
46087;BME280;31824;49.648;8.640;2022-07-29T14:24:33;99977.22;;;32.10;38.29
46087;BME280;31824;49.648;8.640;2022-07-29T14:27:37;99975.47;;;32.23;37.49
46087;BME280;31824;49.648;8.640;2022-07-29T14:30:39;99985.44;;;32.38;38.04
46087;BME280;31824;49.648;8.640;2022-07-29T14:33:41;99976.31;;;32.01;38.90
46087;BME280;31824;49.648;8.640;2022-07-29T14:36:46;99977.25;;;32.23;40.05
46087;BME280;31824;49.648;8.640;2022-07-29T14:39:48;99981.66;;;31.67;39.46
46087;BME280;31824;49.648;8.640;2022-07-29T14:42:49;99987.16;;;31.87;39.05
46087;BME280;31824;49.648;8.640;2022-07-29T14:45:51;99980.66;;;31.49;40.18
46087;BME280;31824;49.648;8.640;2022-07-29T14:48:57;99978.88;;;31.51;39.56
46087;BME280;31824;49.648;8.640;2022-07-29T14:51:59;99969.03;;;31.87;39.08
46087;BME280;31824;49.648;8.640;2022-07-29T14:55:01;99978.94;;;31.63;39.54
46087;BME280;31824;49.648;8.640;2022-07-29T14:58:03;99968.88;;;31.41;40.13
46087;BME280;31824;49.648;8.640;2022-07-29T15:01:12;99979.88;;;31.78;40.19
46087;BME280;31824;49.648;8.640;2022-07-29T15:04:13;99978.00;;;31.55;38.59
46087;BME280;31824;49.648;8.640;2022-07-29T15:07:15;99986.31;;;32.26;38.82
46087;BME280;31824;49.648;8.640;2022-07-29T15:10:17;99983.47;;;31.75;38.40
46087;BME280;31824;49.648;8.640;2022-07-29T15:13:19;99983.47;;;31.74;39.68
46087;BME280;31824;49.648;8.640;2022-07-29T15:16:20;99986.34;;;32.34;39.96
46087;BME280;31824;49.648;8.640;2022-07-29T15:19:22;99987.13;;;31.77;38.98
46087;BME280;31824;49.648;8.640;2022-07-29T15:22:23;99993.56;;;32.23;39.82
46087;BME280;31824;49.648;8.640;2022-07-29T15:25:25;99976.97;;;31.25;39.75
46087;BME280;31824;49.648;8.640;2022-07-29T15:28:28;99977.03;;;31.45;40.15
46087;BME280;31824;49.648;8.640;2022-07-29T15:31:30;99981.69;;;31.82;39.32
46087;BME280;31824;49.648;8.640;2022-07-29T15:34:31;99988.91;;;31.77;39.32
46087;BME280;31824;49.648;8.640;2022-07-29T15:37:33;99990.72;;;31.81;39.32
46087;BME280;31824;49.648;8.640;2022-07-29T15:40:49;99989.69;;;31.40;39.42
46087;BME280;31824;49.648;8.640;2022-07-29T15:43:51;99989.56;;;31.14;38.83
46087;BME280;31824;49.648;8.640;2022-07-29T15:46:52;99982.44;;;31.36;38.79
46087;BME280;31824;49.648;8.640;2022-07-29T15:50:09;99982.41;;;31.28;38.33
46087;BME280;31824;49.648;8.640;2022-07-29T15:53:15;99986.06;;;31.41;38.83
46087;BME280;31824;49.648;8.640;2022-07-29T15:56:17;99979.88;;;31.75;38.74
46087;BME280;31824;49.648;8.640;2022-07-29T15:59:20;99970.59;;;31.19;38.20
46087;BME280;31824;49.648;8.640;2022-07-29T16:02:23;99967.94;;;31.34;39.00
46087;BME280;31824;49.648;8.640;2022-07-29T16:05:24;99974.19;;;31.14;37.92
46087;BME280;31824;49.648;8.640;2022-07-29T16:08:29;99983.09;;;30.93;39.72
46087;BME280;31824;49.648;8.640;2022-07-29T16:11:31;99973.16;;;30.97;39.63
46087;BME280;31824;49.648;8.640;2022-07-29T16:14:33;99967.91;;;31.28;40.69
46087;BME280;31824;49.648;8.640;2022-07-29T16:17:35;99970.59;;;31.17;38.31
46087;BME280;31824;49.648;8.640;2022-07-29T16:20:36;99970.56;;;31.09;37.81
46087;BME280;31824;49.648;8.640;2022-07-29T16:23:39;99991.59;;;31.63;38.99
46087;BME280;31824;49.648;8.640;2022-07-29T16:26:40;99980.78;;;31.86;38.46
46087;BME280;31824;49.648;8.640;2022-07-29T16:29:41;99997.59;;;31.02;41.41
46087;BME280;31824;49.648;8.640;2022-07-29T16:32:43;100003.13;;;30.03;47.66
46087;BME280;31824;49.648;8.640;2022-07-29T16:35:44;99997.94;;;30.26;53.17
46087;BME280;31824;49.648;8.640;2022-07-29T16:38:47;99985.34;;;30.31;51.11
46087;BME280;31824;49.648;8.640;2022-07-29T16:41:48;99976.53;;;30.57;49.63
46087;BME280;31824;49.648;8.640;2022-07-29T16:44:50;99983.56;;;30.37;50.38
46087;BME280;31824;49.648;8.640;2022-07-29T16:47:53;99974.72;;;29.66;54.24